Time;durP1;ratioP1;P1;durP2;ratioP2;P2;SDS_P1;SDS_P2;PMS_P1;PMS_P2;Temp;Humidity;BMP_temperature;BMP_pressure;BME280_temperature;BME280_humidity;BME280_pressure;Samples;Min_cycle;Max_cycle;Signal;HPM_P1;HPM_P2
2022/03/02 00:00:13;;;;;;;0.00;0.00;;;;;;;2.78;66.24;99576.75;4816692;29;20404;-81
2022/03/02 00:02:39;;;;;;;0.00;0.00;;;;;;;2.82;65.79;99583.22;4760823;29;20046;-80
2022/03/02 00:06:12;;;;;;;0.00;0.00;;;;;;;2.85;66.85;99578.34;4810192;29;20141;-80
2022/03/02 00:08:39;;;;;;;0.00;0.00;;;;;;;2.88;66.12;99570.00;4823564;29;20170;-80
2022/03/02 00:11:05;;;;;;;0.00;0.00;;;;;;;2.90;66.12;99568.97;4792885;29;20054;-79
2022/03/02 00:14:08;;;;;;;0.00;0.00;;;;;;;2.87;66.03;99565.72;4824898;29;20387;-80
2022/03/02 00:17:04;;;;;;;0.08;0.08;;;;;;;2.90;66.32;99568.97;4720852;30;20041;-81
2022/03/02 00:19:38;;;;;;;0.00;0.00;;;;;;;2.91;66.19;99560.03;4771012;29;20046;-81
2022/03/02 00:22:04;;;;;;;0.00;0.00;;;;;;;2.85;66.46;99569.59;4811800;29;20171;-80
2022/03/02 00:25:14;;;;;;;0.00;0.00;;;;;;;2.87;66.37;99560.44;4798105;29;20203;-81
2022/03/02 00:57:00;;;;;;;0.00;0.00;;;;;;;2.81;66.35;99519.03;5890344;23;20305;31
2022/03/02 01:23:01;;;;;;;0.00;0.00;;;;;;;2.77;66.85;99495.91;5734192;23;20050;-79
2022/03/02 01:32:48;;;;;;;0.17;0.17;;;;;;;2.75;66.25;99485.53;5889253;23;20118;31
2022/03/02 01:49:01;;;;;;;0.00;0.00;;;;;;;2.69;66.93;99465.28;4761590;30;20082;-82
2022/03/02 01:58:30;;;;;;;0.00;0.00;;;;;;;2.64;67.21;99450.06;5332843;24;20045;-79
2022/03/02 02:00:57;;;;;;;0.00;0.00;;;;;;;2.68;67.37;99447.81;4833756;29;20085;-79
2022/03/02 02:03:23;;;;;;;0.00;0.00;;;;;;;2.63;67.34;99447.66;4816429;29;20038;-80
2022/03/02 02:05:49;;;;;;;0.00;0.00;;;;;;;2.60;67.50;99450.69;4806540;29;20452;-81
2022/03/02 02:08:45;;;;;;;0.43;0.43;;;;;;;2.56;67.07;99448.50;4810619;29;20025;-81
2022/03/02 02:43:49;;;;;;;0.05;0.05;;;;;;;2.42;67.89;99398.63;4818923;29;20066;-81
2022/03/02 02:50:22;;;;;;;0.00;0.00;;;;;;;2.35;67.87;99399.47;4824191;29;20779;-78
2022/03/02 02:52:48;;;;;;;0.00;0.00;;;;;;;2.28;68.12;99398.69;4806718;29;20507;-78
2022/03/02 02:55:16;;;;;;;0.00;0.00;;;;;;;2.26;68.25;99403.41;4797419;29;20117;-78
2022/03/02 02:57:41;;;;;;;0.00;0.00;;;;;;;2.26;68.31;99392.84;4802222;29;20118;-79
2022/03/02 03:00:10;;;;;;;0.00;0.00;;;;;;;2.24;68.65;99387.75;4796140;29;20500;-79
2022/03/02 03:08:38;;;;;;;0.00;0.00;;;;;;;2.15;69.38;99390.88;5753769;24;20058;31
2022/03/02 03:14:37;;;;;;;0.00;0.00;;;;;;;2.03;68.70;99391.53;4787382;30;20116;-81
2022/03/02 03:17:02;;;;;;;0.00;0.00;;;;;;;2.03;68.85;99394.19;4755922;30;20496;-80
2022/03/02 03:20:21;;;;;;;0.00;0.00;;;;;;;2.03;68.84;99402.09;4759389;30;20542;-81
2022/03/02 03:22:47;;;;;;;0.03;0.03;;;;;;;2.01;68.69;99403.34;4769022;30;20047;-80
2022/03/02 03:27:49;;;;;;;0.00;0.00;;;;;;;1.93;69.26;99407.03;4900075;23;20067;-79
2022/03/02 03:31:08;;;;;;;0.00;0.00;;;;;;;1.94;69.49;99410.47;4796559;29;20041;-82
2022/03/02 03:33:33;;;;;;;0.00;0.00;;;;;;;1.92;69.41;99411.47;4774337;30;20042;-81
2022/03/02 03:36:08;;;;;;;0.00;0.00;;;;;;;1.86;69.49;99422.06;4779580;29;20035;-80
2022/03/02 03:38:34;;;;;;;0.10;0.10;;;;;;;1.81;69.13;99420.06;4796985;29;20037;-80
2022/03/02 03:41:01;;;;;;;0.00;0.00;;;;;;;1.81;69.26;99413.97;4809308;29;20030;-82
2022/03/02 03:43:27;;;;;;;0.00;0.00;;;;;;;1.72;69.34;99408.94;4793734;29;20553;-78
2022/03/02 03:45:53;;;;;;;0.00;0.00;;;;;;;1.65;69.29;99407.31;4802030;29;20126;-78
2022/03/02 03:48:18;;;;;;;0.00;0.00;;;;;;;1.63;68.96;99407.53;4790701;29;20137;-80
2022/03/02 03:50:45;;;;;;;0.00;0.00;;;;;;;1.44;69.24;99398.66;4790733;29;20034;-80
2022/03/02 03:53:11;;;;;;;0.00;0.00;;;;;;;1.31;69.44;99396.06;4798703;29;20038;-80
2022/03/02 03:55:40;;;;;;;0.00;0.00;;;;;;;1.19;69.72;99391.44;4793137;29;20022;-81
2022/03/02 04:01:27;;;;;;;0.00;0.00;;;;;;;1.02;69.63;99414.75;4860331;24;20134;-81
2022/03/02 04:03:56;;;;;;;0.00;0.00;;;;;;;0.88;69.38;99413.16;4839468;29;20442;-82
2022/03/02 04:06:24;;;;;;;0.00;0.00;;;;;;;0.70;70.17;99414.56;4825622;29;20048;-81
2022/03/02 04:08:51;;;;;;;0.00;0.00;;;;;;;0.63;70.81;99421.66;4827155;29;20527;-81
2022/03/02 04:11:20;;;;;;;0.00;0.00;;;;;;;0.62;70.93;99422.66;4826765;29;20036;-82
2022/03/02 04:13:53;;;;;;;0.00;0.00;;;;;;;0.60;70.80;99414.19;4816203;29;20034;-81
2022/03/02 04:16:27;;;;;;;0.00;0.00;;;;;;;0.58;71.25;99409.09;4850663;29;20128;-81
2022/03/02 04:18:52;;;;;;;0.00;0.00;;;;;;;0.62;71.35;99404.22;4827841;29;20053;-81
2022/03/02 04:24:40;;;;;;;0.45;0.45;;;;;;;0.60;71.13;99404.44;4843078;29;20082;-79
2022/03/02 04:27:05;;;;;;;0.00;0.00;;;;;;;0.64;71.13;99408.28;4832273;29;20026;-80
2022/03/02 04:29:41;;;;;;;0.00;0.00;;;;;;;0.66;71.34;99404.63;5148472;24;20016;-81
2022/03/02 04:32:07;;;;;;;0.00;0.00;;;;;;;0.67;71.11;99401.00;4802669;29;20035;-78
2022/03/02 05:15:31;;;;;;;0.00;0.00;;;;;;;1.00;70.94;99401.00;5078968;24;20043;31
2022/03/02 05:17:58;;;;;;;0.00;0.00;;;;;;;1.06;70.39;99387.03;4760392;30;20159;-80
2022/03/02 05:20:45;;;;;;;0.00;0.00;;;;;;;1.17;70.33;99390.81;4745101;30;20036;-81
2022/03/02 05:27:29;;;;;;;0.00;0.00;;;;;;;1.62;69.34;99392.75;4763862;30;20071;-83
2022/03/02 05:38:48;;;;;;;0.00;0.00;;;;;;;2.35;66.71;99394.19;5013412;24;20053;-82
2022/03/02 07:24:22;;;;;;;0.32;0.32;;;;;;;3.75;60.19;99412.44;4872332;23;20097;-82
2022/03/02 07:27:06;;;;;;;0.00;0.00;;;;;;;3.84;60.08;99405.00;5183304;24;20698;-80
2022/03/02 07:50:03;;;;;;;0.00;0.00;;;;;;;4.94;57.00;99362.44;4875293;24;20062;-81
2022/03/02 07:53:07;;;;;;;0.00;0.00;;;;;;;5.16;55.42;99357.34;5514638;24;20832;31
2022/03/02 08:18:50;;;;;;;0.00;0.00;;;;;;;6.51;52.57;99303.06;5265667;23;20062;-79
2022/03/02 08:21:39;;;;;;;0.00;0.00;;;;;;;6.60;51.58;99303.44;4819470;29;20041;-83
2022/03/02 08:24:06;;;;;;;0.28;0.28;;;;;;;6.54;51.68;99291.94;5293618;24;20070;-80
2022/03/02 08:26:40;;;;;;;0.05;0.05;;;;;;;6.47;51.59;99293.97;4784889;30;20055;-82
2022/03/02 08:29:44;;;;;;;0.32;0.30;;;;;;;6.52;52.08;99293.25;4778414;30;20035;-82
2022/03/02 08:36:13;;;;;;;0.45;0.45;;;;;;;6.24;53.64;99285.09;4817160;29;20055;-82
2022/03/02 08:47:29;;;;;;;0.10;0.10;;;;;;;5.93;55.11;99286.41;4877223;23;20140;-80
2022/03/02 09:11:23;;;;;;;0.00;0.00;;;;;;;6.25;52.48;99259.38;5019142;23;20050;-82
2022/03/02 09:13:50;;;;;;;0.03;0.03;;;;;;;6.23;52.55;99254.28;4821194;29;20057;-81
2022/03/02 09:16:17;;;;;;;0.68;0.68;;;;;;;6.26;52.90;99255.63;4825724;29;20040;-81
2022/03/02 09:34:21;;;;;;;0.00;0.00;;;;;;;5.86;55.95;99233.47;4923851;24;20054;-78
2022/03/02 09:36:48;;;;;;;0.00;0.00;;;;;;;5.81;55.43;99221.97;4824310;29;20165;-78
2022/03/02 09:39:13;;;;;;;0.38;0.38;;;;;;;5.88;55.56;99220.78;4807478;29;20032;-78
2022/03/02 09:41:51;;;;;;;0.00;0.00;;;;;;;5.89;55.36;99217.06;4806151;29;20042;-78
2022/03/02 09:44:20;;;;;;;0.28;0.28;;;;;;;5.87;54.67;99195.28;4806437;29;20022;-78
2022/03/02 09:46:56;;;;;;;0.08;0.08;;;;;;;5.85;55.47;99193.91;4806303;29;20479;-78
2022/03/02 09:49:23;;;;;;;1.17;1.17;;;;;;;5.96;55.70;99192.22;4806111;29;20026;-78
2022/03/02 09:52:01;;;;;;;0.25;0.25;;;;;;;5.99;55.23;99184.59;4803556;29;20091;-78
2022/03/02 09:54:28;;;;;;;2.72;2.53;;;;;;;5.97;54.68;99176.06;4788449;29;20037;-78
2022/03/02 09:56:56;;;;;;;0.10;0.10;;;;;;;5.95;55.80;99177.34;4800300;29;20098;-78
2022/03/02 09:59:24;;;;;;;0.00;0.00;;;;;;;6.04;55.13;99189.19;4811886;29;20026;-78
2022/03/02 10:01:52;;;;;;;0.03;0.03;;;;;;;5.99;53.88;99179.28;4821704;29;20444;-80
2022/03/02 10:04:24;;;;;;;0.00;0.00;;;;;;;6.11;53.45;99181.06;4824056;29;20041;-78
2022/03/02 10:09:47;;;;;;;1.95;1.33;;;;;;;6.02;55.00;99167.41;4840736;29;20036;-78
2022/03/02 10:12:42;;;;;;;0.20;0.20;;;;;;;6.09;54.55;99157.41;4824561;29;20086;-80
2022/03/02 10:15:14;;;;;;;0.75;0.75;;;;;;;6.19;54.29;99151.41;4815913;29;20037;-77
2022/03/02 10:17:42;;;;;;;0.20;0.20;;;;;;;6.22;53.45;99146.44;4823960;29;20030;-77
2022/03/02 10:20:10;;;;;;;;;;;;;;;6.35;53.00;99147.94;4824832;29;20014;-79
2022/03/02 10:23:05;;;;;;;0.45;0.45;;;;;;;6.44;52.60;99140.34;4824165;29;19908;-80
2022/03/02 10:26:07;;;;;;;0.00;0.00;;;;;;;6.48;53.10;99133.50;4824432;29;20026;-78
2022/03/02 10:29:03;;;;;;;0.30;0.30;;;;;;;6.49;51.73;99129.00;4824319;29;20057;-79
2022/03/02 10:31:40;;;;;;;0.35;0.35;;;;;;;6.53;52.51;99127.44;4824193;29;20096;-79
2022/03/02 10:34:26;;;;;;;0.75;0.68;;;;;;;6.51;52.14;99126.91;4824236;29;20040;-79
2022/03/02 10:37:08;;;;;;;0.47;0.47;;;;;;;6.59;53.16;99129.09;4824307;29;20607;-79
2022/03/02 10:39:42;;;;;;;0.20;0.20;;;;;;;6.57;52.76;99121.38;4823983;29;20034;-79
2022/03/02 10:42:16;;;;;;;0.13;0.13;;;;;;;6.64;52.31;99123.88;4840479;29;20034;-79
2022/03/02 10:45:12;;;;;;;0.10;0.10;;;;;;;6.76;52.41;99123.72;4823694;29;20038;-79
2022/03/02 10:47:45;;;;;;;0.00;0.00;;;;;;;6.78;51.51;99121.63;4833493;29;20037;-79
2022/03/02 10:50:11;;;;;;;0.15;0.15;;;;;;;6.85;52.76;99111.59;4824269;29;20033;-79
2022/03/02 10:52:39;;;;;;;0.00;0.00;;;;;;;6.94;52.01;99103.97;4824034;29;20026;-79
2022/03/02 10:55:08;;;;;;;0.00;0.00;;;;;;;6.99;51.46;99101.38;4824288;29;20177;-78
2022/03/02 10:57:34;;;;;;;0.00;0.00;;;;;;;7.12;50.86;99105.50;4820355;29;20478;-79
2022/03/02 11:00:14;;;;;;;0.00;0.00;;;;;;;7.20;51.66;99096.25;4823408;29;20028;-77
2022/03/02 11:02:42;;;;;;;0.00;0.00;;;;;;;7.29;50.68;99094.75;4823321;29;20394;-78
2022/03/02 11:05:15;;;;;;;0.45;0.45;;;;;;;7.39;49.76;99102.00;4824182;29;20026;-78
2022/03/02 11:07:41;;;;;;;0.20;0.20;;;;;;;7.50;50.40;99093.03;4823582;29;20048;-78
2022/03/02 11:10:10;;;;;;;0.00;0.00;;;;;;;7.68;50.60;99091.06;4823839;29;20037;-78
2022/03/02 11:12:41;;;;;;;0.00;0.00;;;;;;;7.79;47.97;99087.41;4823942;29;20061;-77
2022/03/02 11:15:08;;;;;;;0.57;0.57;;;;;;;7.93;47.68;99078.97;4839966;29;20497;-77
2022/03/02 11:17:34;;;;;;;0.00;0.00;;;;;;;7.98;46.20;99071.00;4840176;29;20113;-76
2022/03/02 11:20:08;;;;;;;0.00;0.00;;;;;;;8.02;45.66;99070.22;4840471;29;20030;-77
2022/03/02 11:22:34;;;;;;;2.55;0.80;;;;;;;7.97;47.18;99072.88;4825130;29;20049;-76
2022/03/02 11:25:00;;;;;;;0.00;0.00;;;;;;;8.00;46.20;99061.69;4843727;29;20033;-75
2022/03/02 11:27:41;;;;;;;0.95;0.88;;;;;;;7.93;44.74;99058.44;4843875;29;20030;-78
2022/03/02 11:30:07;;;;;;;0.00;0.00;;;;;;;7.96;44.97;99057.16;4827129;29;20037;-78
2022/03/02 11:32:35;;;;;;;0.00;0.00;;;;;;;7.84;44.55;99039.50;4826568;29;20041;-77
2022/03/02 11:35:03;;;;;;;0.00;0.00;;;;;;;7.79;46.17;99039.47;4827074;29;20170;-79
2022/03/02 11:37:32;;;;;;;0.17;0.17;;;;;;;7.75;44.93;99050.91;4827129;29;20398;-77
2022/03/02 11:39:58;;;;;;;0.00;0.00;;;;;;;7.64;45.77;99034.06;4827119;29;20033;-78
2022/03/02 11:42:29;;;;;;;0.08;0.08;;;;;;;7.48;45.16;99035.81;4843106;29;20038;-79
2022/03/02 11:44:57;;;;;;;0.47;0.47;;;;;;;7.45;46.44;99037.13;4828517;29;20041;-80
2022/03/02 11:47:24;;;;;;;0.67;0.67;;;;;;;7.36;45.39;99038.66;4826559;29;20041;-81
2022/03/02 11:49:55;;;;;;;0.00;0.00;;;;;;;7.25;46.67;99026.34;4826728;29;20358;-81
2022/03/02 11:52:27;;;;;;;0.10;0.10;;;;;;;7.23;46.41;99026.59;4826796;29;20402;-81
2022/03/02 11:54:59;;;;;;;0.20;0.20;;;;;;;7.19;45.99;99025.50;4843406;29;20029;-82
2022/03/02 11:57:27;;;;;;;0.00;0.00;;;;;;;7.16;46.12;99020.69;4826605;29;20033;-80
2022/03/02 12:00:12;;;;;;;0.38;0.38;;;;;;;7.16;47.18;99018.03;4826251;29;20038;-80
2022/03/02 12:02:53;;;;;;;0.25;0.25;;;;;;;7.15;47.17;99011.91;4811870;29;20125;-81
2022/03/02 12:05:22;;;;;;;0.00;0.00;;;;;;;7.11;46.41;99005.47;4826479;29;20018;-81
2022/03/02 12:07:51;;;;;;;0.00;0.00;;;;;;;7.07;45.39;99000.91;4842054;29;20017;-80
2022/03/02 12:10:21;;;;;;;0.65;0.65;;;;;;;6.95;45.79;98998.44;4826304;29;20054;-80
2022/03/02 12:12:48;;;;;;;0.00;0.00;;;;;;;6.96;47.20;98992.09;4826140;29;20032;-80
2022/03/02 12:15:14;;;;;;;0.00;0.00;;;;;;;7.02;46.82;98983.09;4826620;29;20030;-80
2022/03/02 12:17:40;;;;;;;0.43;0.35;;;;;;;7.10;47.22;98979.16;4826351;29;20098;-81
2022/03/02 12:20:12;;;;;;;0.00;0.00;;;;;;;7.21;47.44;98983.47;4827087;29;20026;-79
2022/03/02 12:22:40;;;;;;;0.00;0.00;;;;;;;7.22;45.44;98982.44;4827599;29;20456;-80
2022/03/02 12:25:19;;;;;;;0.63;0.63;;;;;;;7.36;46.65;98975.63;4829901;29;20060;-79
2022/03/02 12:28:04;;;;;;;0.10;0.10;;;;;;;7.34;45.17;98969.75;4844400;29;20096;-78
2022/03/02 12:30:37;;;;;;;0.00;0.00;;;;;;;7.37;45.53;98977.22;4827521;29;20033;-80
2022/03/02 12:33:05;;;;;;;0.13;0.13;;;;;;;7.39;46.11;98976.97;4827500;29;20494;-80
2022/03/02 12:35:33;;;;;;;0.10;0.10;;;;;;;7.43;45.77;98982.56;4827626;29;20029;-82
2022/03/02 12:38:02;;;;;;;0.60;0.43;;;;;;;7.38;45.79;98978.00;4828804;29;20029;-80
2022/03/02 12:40:31;;;;;;;0.00;0.00;;;;;;;7.38;44.98;98970.03;4826957;29;20033;-80
2022/03/02 12:42:58;;;;;;;0.00;0.00;;;;;;;7.39;44.02;98971.63;4825770;29;20053;-81
2022/03/02 12:45:24;;;;;;;0.00;0.00;;;;;;;7.33;44.20;98965.47;4826062;29;20113;-80
2022/03/02 12:48:00;;;;;;;0.00;0.00;;;;;;;7.31;43.87;98970.28;4826627;29;20455;-81
2022/03/02 12:50:29;;;;;;;0.00;0.00;;;;;;;7.31;44.34;98959.63;4827515;29;20030;-80
2022/03/02 12:53:19;;;;;;;0.38;0.38;;;;;;;7.22;44.58;98961.94;4836110;29;20118;-83
2022/03/02 12:55:47;;;;;;;0.10;0.10;;;;;;;7.28;44.68;98960.13;4841512;29;20046;-79
2022/03/02 12:58:13;;;;;;;0.00;0.00;;;;;;;7.34;44.33;98964.41;4828666;29;20410;-79
2022/03/02 13:00:38;;;;;;;0.35;0.35;;;;;;;7.36;44.48;98959.66;4826680;29;20030;-79
2022/03/02 13:03:06;;;;;;;0.00;0.00;;;;;;;7.46;44.33;98955.47;4826343;29;20037;-80
2022/03/02 13:05:38;;;;;;;0.00;0.00;;;;;;;7.52;44.57;98959.75;4842374;29;20037;-79
2022/03/02 13:08:43;;;;;;;0.00;0.00;;;;;;;7.47;43.47;98959.69;4829524;29;20063;-81
2022/03/02 13:11:27;;;;;;;0.45;0.45;;;;;;;7.46;44.20;98950.13;4848211;29;20037;-81
2022/03/02 13:14:40;;;;;;;0.00;0.00;;;;;;;7.48;44.64;98951.47;4831856;29;20030;-81
2022/03/02 13:17:17;;;;;;;0.00;0.00;;;;;;;7.52;43.92;98949.91;4825533;29;20151;-80
2022/03/02 13:19:54;;;;;;;0.00;0.00;;;;;;;7.58;44.91;98939.28;4829881;29;20068;-81
2022/03/02 13:22:24;;;;;;;0.13;0.13;;;;;;;7.67;44.41;98946.50;4825730;29;20510;-80
2022/03/02 13:24:54;;;;;;;0.00;0.00;;;;;;;7.71;44.50;98944.13;4826919;29;20025;-82
2022/03/02 13:27:53;;;;;;;0.10;0.10;;;;;;;7.66;43.84;98947.56;4954147;24;20025;-82
2022/03/02 13:30:34;;;;;;;0.35;0.35;;;;;;;7.71;43.74;98943.34;4849404;29;20057;-80
2022/03/02 13:41:09;;;;;;;0.00;0.00;;;;;;;7.58;43.60;98953.41;5664675;24;21015;31
2022/03/02 14:35:50;;;;;;;0.00;0.00;;;;;;;7.06;45.03;98893.75;4962644;24;20058;-79
2022/03/02 14:38:16;;;;;;;1.00;0.60;;;;;;;6.98;44.36;98889.75;4822213;29;20034;-81
2022/03/02 14:41:09;;;;;;;0.35;0.30;;;;;;;6.93;44.94;98891.53;4809485;29;20056;-81
2022/03/02 14:44:24;;;;;;;0.20;0.20;;;;;;;6.93;45.05;98887.03;4824106;29;20034;-80
2022/03/02 14:46:54;;;;;;;0.10;0.10;;;;;;;6.88;45.58;98882.50;4823675;29;20026;-80
2022/03/02 14:49:21;;;;;;;0.00;0.00;;;;;;;6.88;45.68;98894.97;4824233;29;20132;-81
2022/03/02 14:51:56;;;;;;;0.80;0.73;;;;;;;6.85;45.79;98887.50;4808693;29;20022;-81
2022/03/02 14:54:21;;;;;;;0.10;0.10;;;;;;;6.85;45.88;98880.34;4839528;29;20042;-80
2022/03/02 14:56:47;;;;;;;0.00;0.00;;;;;;;6.85;45.77;98884.84;4810879;29;20037;-81
2022/03/02 14:59:13;;;;;;;0.00;0.00;;;;;;;6.85;46.28;98884.84;4832563;29;20116;-81
2022/03/02 15:01:40;;;;;;;0.30;0.30;;;;;;;6.82;46.26;98883.50;4841178;29;20033;-79
2022/03/02 15:04:06;;;;;;;0.00;0.00;;;;;;;6.87;46.27;98885.38;4834110;29;20022;-81
2022/03/02 15:06:38;;;;;;;3.05;1.42;;;;;;;6.88;45.93;98884.34;4829361;29;20026;-81
2022/03/02 15:09:09;;;;;;;1.13;1.00;;;;;;;6.91;47.18;98883.00;4815437;29;20030;-79
2022/03/02 15:11:37;;;;;;;0.00;0.00;;;;;;;6.91;46.75;98891.00;4832347;29;20022;-81
2022/03/02 15:17:11;;;;;;;0.75;0.75;;;;;;;6.94;45.99;98885.97;4845095;29;20045;-80
2022/03/02 15:19:50;;;;;;;0.00;0.00;;;;;;;6.86;46.45;98881.94;4828974;29;20094;-80
2022/03/02 15:22:22;;;;;;;0.00;0.00;;;;;;;6.78;47.21;98874.44;4827635;29;20022;-80
2022/03/02 15:24:54;;;;;;;0.00;0.00;;;;;;;6.73;47.46;98874.41;4827179;29;20401;-80
2022/03/02 15:27:22;;;;;;;0.20;0.20;;;;;;;6.58;48.37;98872.44;4827749;29;20061;-79
2022/03/02 15:29:48;;;;;;;1.75;1.65;;;;;;;6.49;49.32;98872.06;4828541;29;20033;-80
2022/03/02 15:32:23;;;;;;;2.22;0.85;;;;;;;6.41;49.76;98870.69;4827305;29;20398;-79
2022/03/02 15:34:51;;;;;;;1.70;0.93;;;;;;;6.33;50.05;98867.69;4826813;29;20044;-81
2022/03/02 15:37:25;;;;;;;0.00;0.00;;;;;;;6.30;50.61;98876.97;4827340;29;20613;-79
2022/03/02 15:39:53;;;;;;;0.80;0.80;;;;;;;6.22;51.21;98883.53;4827237;29;20054;-80
2022/03/02 15:42:26;;;;;;;0.20;0.20;;;;;;;6.16;49.70;98875.78;4833882;29;20048;-80
2022/03/02 15:45:03;;;;;;;2.67;0.90;;;;;;;6.15;50.66;98879.47;4840650;29;20038;-80
2022/03/02 15:47:32;;;;;;;0.38;0.38;;;;;;;6.06;50.19;98877.25;4829875;29;20040;-81
2022/03/02 15:49:58;;;;;;;0.00;0.00;;;;;;;6.07;50.57;98870.91;4826401;29;20038;-79
2022/03/02 15:52:32;;;;;;;0.38;0.38;;;;;;;6.13;51.56;98874.41;4828531;29;20097;-81
2022/03/02 15:55:00;;;;;;;0.10;0.10;;;;;;;6.07;51.10;98870.13;4826978;29;20509;-81
2022/03/02 16:01:37;;;;;;;0.00;0.00;;;;;;;6.05;51.19;98881.00;4783810;30;20054;-80
2022/03/02 16:18:32;;;;;;;0.68;0.68;;;;;;;5.73;52.18;98873.69;4911318;24;20061;-79
2022/03/02 16:21:11;;;;;;;0.95;0.95;;;;;;;5.70;53.07;98881.34;4832283;29;20063;-80
2022/03/02 16:24:07;;;;;;;0.25;0.25;;;;;;;5.64;53.27;98879.69;4857798;29;20033;-81
2022/03/02 16:26:40;;;;;;;0.28;0.28;;;;;;;5.54;53.07;98877.72;5032388;24;20050;-81
2022/03/02 16:29:06;;;;;;;0.00;0.00;;;;;;;5.49;53.90;98875.00;4829675;29;20053;-77
2022/03/02 16:32:07;;;;;;;0.82;0.82;;;;;;;5.42;53.65;98868.03;4829960;29;20053;-83
2022/03/02 16:53:07;;;;;;;1.13;1.13;;;;;;;5.28;55.49;98880.03;4830088;29;20119;-80
2022/03/02 16:55:33;;;;;;;0.00;0.00;;;;;;;5.26;55.52;98880.28;4798505;29;20596;-79
2022/03/02 16:58:10;;;;;;;0.63;0.63;;;;;;;5.24;55.91;98871.78;4827012;29;20120;-82
2022/03/02 17:00:45;;;;;;;0.20;0.20;;;;;;;5.20;55.65;98873.31;5146354;24;20297;-80
2022/03/02 17:03:44;;;;;;;0.00;0.00;;;;;;;5.23;55.92;98864.88;4851622;29;20022;-83
2022/03/02 17:07:03;;;;;;;0.10;0.10;;;;;;;5.18;56.78;98872.75;4851435;29;20037;-82
2022/03/02 17:09:32;;;;;;;0.00;0.00;;;;;;;5.19;56.91;98861.09;4848661;29;20034;-79
2022/03/02 17:12:02;;;;;;;0.25;0.25;;;;;;;5.16;57.46;98869.53;4828033;29;20033;-79
2022/03/02 17:15:36;;;;;;;1.23;1.23;;;;;;;5.09;57.92;98874.22;4857627;29;20026;-82
2022/03/02 17:30:47;;;;;;;0.45;0.45;;;;;;;4.89;59.27;98864.13;5387857;24;20036;-83
2022/03/02 17:33:13;;;;;;;0.30;0.30;;;;;;;4.87;59.65;98852.97;4822306;29;20042;-80
2022/03/02 17:35:38;;;;;;;0.05;0.05;;;;;;;4.87;59.99;98850.31;4824578;29;20111;-81
2022/03/02 17:38:04;;;;;;;0.30;0.30;;;;;;;4.91;59.60;98851.44;4830280;29;20094;-80
2022/03/02 17:40:31;;;;;;;0.00;0.00;;;;;;;4.93;59.59;98852.00;4822940;29;20030;-80
2022/03/02 17:42:56;;;;;;;0.10;0.10;;;;;;;4.81;59.62;98860.84;4821924;29;20041;-81
2022/03/02 17:45:22;;;;;;;0.15;0.15;;;;;;;4.81;60.20;98857.41;4823310;29;20011;-81
2022/03/02 17:47:47;;;;;;;3.50;1.95;;;;;;;4.79;60.17;98849.69;4809136;29;20063;-81
2022/03/02 17:50:13;;;;;;;0.30;0.30;;;;;;;4.80;60.62;98855.78;4809463;29;20053;-81
2022/03/02 17:52:41;;;;;;;2.08;1.95;;;;;;;4.75;60.46;98850.44;4808467;29;20050;-80
2022/03/02 17:55:07;;;;;;;0.15;0.15;;;;;;;4.80;60.40;98856.59;4811368;29;20471;-81
2022/03/02 17:57:35;;;;;;;0.28;0.28;;;;;;;4.77;60.18;98850.97;4823639;29;20582;-82
2022/03/02 18:00:04;;;;;;;0.00;0.00;;;;;;;4.73;60.54;98855.94;4826998;29;20464;-83
2022/03/02 18:12:39;;;;;;;4.40;2.03;;;;;;;4.55;60.97;98842.97;4822702;29;20050;-81
2022/03/02 18:18:26;;;;;;;0.20;0.20;;;;;;;4.55;60.88;98849.03;4814615;29;20033;-82
2022/03/02 18:20:53;;;;;;;0.50;0.50;;;;;;;4.56;61.00;98837.41;4804759;29;20437;-80
2022/03/02 18:23:18;;;;;;;0.95;0.95;;;;;;;4.58;61.02;98842.50;4803275;29;20081;-81
2022/03/02 18:26:06;;;;;;;0.10;0.10;;;;;;;4.57;60.83;98839.03;4805519;29;20534;-82
2022/03/02 18:28:32;;;;;;;0.00;0.00;;;;;;;4.68;60.91;98844.50;4785572;30;20034;-80
2022/03/02 18:30:58;;;;;;;0.00;0.00;;;;;;;4.65;60.66;98843.91;4786893;29;20415;-81
2022/03/02 18:33:24;;;;;;;0.85;0.63;;;;;;;4.70;60.61;98834.44;4819946;29;20034;-80
2022/03/02 18:35:55;;;;;;;0.32;0.30;;;;;;;4.73;60.17;98839.25;4819992;29;20094;-82
2022/03/02 18:38:30;;;;;;;0.10;0.10;;;;;;;4.73;60.23;98840.06;4804109;29;20050;-81
2022/03/02 18:40:56;;;;;;;0.00;0.00;;;;;;;4.76;60.00;98839.59;4825194;29;20022;-80
2022/03/02 18:43:22;;;;;;;0.00;0.00;;;;;;;4.77;60.03;98835.06;4803383;29;20026;-81
2022/03/02 18:45:47;;;;;;;1.55;0.88;;;;;;;4.75;60.29;98837.19;4795515;29;20106;-81
2022/03/02 18:48:13;;;;;;;0.00;0.00;;;;;;;4.77;59.91;98835.06;4805818;29;20037;-79
2022/03/02 18:50:39;;;;;;;0.22;0.22;;;;;;;4.75;60.27;98829.22;4806128;29;20444;-80
2022/03/02 18:53:04;;;;;;;0.00;0.00;;;;;;;4.71;59.67;98828.09;4805689;29;20129;-81
2022/03/02 18:55:30;;;;;;;0.00;0.00;;;;;;;4.77;59.70;98837.72;4806133;29;20031;-80
2022/03/02 18:57:57;;;;;;;0.28;0.28;;;;;;;4.72;60.36;98830.50;4805593;29;20090;-80
2022/03/02 19:00:24;;;;;;;0.00;0.00;;;;;;;4.69;60.08;98841.59;4805385;29;20030;-80
2022/03/02 19:02:50;;;;;;;0.00;0.00;;;;;;;4.73;59.94;98848.00;4804689;29;20033;-83
2022/03/02 19:05:35;;;;;;;0.00;0.00;;;;;;;4.74;59.92;98844.31;4828529;29;20036;-80
2022/03/02 19:08:06;;;;;;;0.70;0.65;;;;;;;4.75;59.96;98853.06;4805680;29;20074;-79
2022/03/02 19:10:32;;;;;;;0.00;0.00;;;;;;;4.72;59.90;98841.09;4810139;29;20038;-78
2022/03/02 19:12:57;;;;;;;0.00;0.00;;;;;;;4.73;60.22;98844.56;4814249;29;20190;-79
2022/03/02 19:15:23;;;;;;;0.40;0.40;;;;;;;4.73;59.67;98845.34;4805227;29;20026;-78
2022/03/02 19:17:48;;;;;;;0.00;0.00;;;;;;;4.72;60.14;98846.38;4791007;29;20031;-78
2022/03/02 19:20:14;;;;;;;0.00;0.00;;;;;;;4.73;60.04;98853.31;4789220;29;20035;-78
2022/03/02 19:22:41;;;;;;;0.00;0.00;;;;;;;4.65;59.98;98848.41;4787952;29;20027;-78
2022/03/02 19:25:15;;;;;;;0.00;0.00;;;;;;;4.65;60.25;98853.69;4803831;29;20467;-78
2022/03/02 19:27:42;;;;;;;0.00;0.00;;;;;;;4.68;60.06;98863.03;4791931;29;20503;-78
2022/03/02 19:30:12;;;;;;;0.00;0.00;;;;;;;4.72;60.14;98859.63;4822017;29;20479;-78
2022/03/02 19:32:41;;;;;;;0.00;0.00;;;;;;;4.76;60.24;98865.25;4821474;29;20194;-78
2022/03/02 19:35:10;;;;;;;0.00;0.00;;;;;;;4.80;60.29;98869.03;4804965;29;20038;-79
2022/03/02 19:37:45;;;;;;;0.00;0.00;;;;;;;4.84;60.73;98867.50;4806953;29;20037;-78
2022/03/02 19:40:13;;;;;;;0.00;0.00;;;;;;;4.89;61.21;98870.22;4805557;29;20479;-79
2022/03/02 19:42:40;;;;;;;0.00;0.00;;;;;;;4.87;61.28;98876.81;4805009;29;20034;-77
2022/03/02 19:45:09;;;;;;;0.00;0.00;;;;;;;4.83;61.88;98876.50;4824465;29;20134;-79
2022/03/02 19:47:56;;;;;;;0.65;0.60;;;;;;;4.79;62.08;98876.19;4824410;29;20506;-77
2022/03/02 19:50:34;;;;;;;0.00;0.00;;;;;;;4.73;62.27;98877.13;4824048;29;20041;-76
2022/03/02 19:53:01;;;;;;;;;;;;;;;4.74;62.46;98883.25;4825521;29;20022;-77
2022/03/02 19:55:30;;;;;;;0.00;0.00;;;;;;;4.68;62.82;98885.00;4824907;29;20066;-77
2022/03/02 19:57:57;;;;;;;0.00;0.00;;;;;;;4.64;63.02;98878.59;4823988;29;20030;-77
2022/03/02 20:00:23;;;;;;;0.00;0.00;;;;;;;4.60;63.04;98886.22;4824453;29;20034;-77
2022/03/02 20:02:49;;;;;;;0.00;0.00;;;;;;;4.62;63.06;98885.97;4807010;29;20291;-77
2022/03/02 20:05:15;;;;;;;0.00;0.00;;;;;;;4.57;63.50;98884.03;4796556;29;20094;-78
2022/03/02 20:07:41;;;;;;;0.00;0.00;;;;;;;4.55;63.75;98877.38;4807326;29;20058;-79
2022/03/02 20:10:07;;;;;;;0.00;0.00;;;;;;;4.50;63.48;98880.75;4820715;29;20061;-78
2022/03/02 20:12:33;;;;;;;0.00;0.00;;;;;;;4.47;64.00;98882.03;4824522;29;20490;-78
2022/03/02 20:14:58;;;;;;;0.03;0.03;;;;;;;4.45;63.96;98875.38;4824163;29;20168;-79
2022/03/02 20:17:26;;;;;;;0.00;0.00;;;;;;;4.47;63.96;98868.00;4824735;29;20030;-78
2022/03/02 20:19:52;;;;;;;0.17;0.17;;;;;;;4.48;63.86;98872.25;4824372;29;20031;-74
2022/03/02 20:22:18;;;;;;;0.00;0.00;;;;;;;4.50;63.91;98875.44;4816384;29;20037;-77
2022/03/02 20:24:43;;;;;;;0.00;0.00;;;;;;;4.58;63.69;98877.72;4803361;29;20083;-75
2022/03/02 20:27:08;;;;;;;0.03;0.03;;;;;;;4.60;63.70;98877.47;4821856;29;20018;-76
2022/03/02 20:29:38;;;;;;;0.00;0.00;;;;;;;4.55;64.06;98867.59;4836342;29;20034;-79
2022/03/02 20:32:05;;;;;;;0.65;0.65;;;;;;;4.55;63.90;98874.75;4817007;29;20078;-78
2022/03/02 20:34:31;;;;;;;0.35;0.35;;;;;;;4.51;64.27;98865.69;4823957;29;20026;-77
2022/03/02 20:36:56;;;;;;;0.00;0.00;;;;;;;4.49;64.46;98863.25;4807570;29;20041;-77
2022/03/02 20:39:21;;;;;;;0.00;0.00;;;;;;;4.48;64.11;98857.16;4807953;29;20086;-78
2022/03/02 20:41:47;;;;;;;0.00;0.00;;;;;;;4.51;64.45;98858.53;4824253;29;20035;-77